createdAt,value
2023-05-10T00:00:20.269Z,0.00
2023-05-10T00:00:52.297Z,0.00
2023-05-10T00:01:23.906Z,0.00
2023-05-10T00:01:56.082Z,0.00
2023-05-10T00:02:28.173Z,0.00
2023-05-10T00:03:00.054Z,0.00
2023-05-10T00:03:31.809Z,0.00
2023-05-10T00:04:03.992Z,0.00
2023-05-10T00:04:35.888Z,0.00
2023-05-10T00:05:08.111Z,0.00
2023-05-10T00:05:39.857Z,0.00
2023-05-10T00:06:11.835Z,0.00
2023-05-10T00:06:43.947Z,0.00
2023-05-10T00:07:15.920Z,0.00
2023-05-10T00:07:47.874Z,0.00
2023-05-10T00:08:19.795Z,0.00
2023-05-10T00:08:51.935Z,0.00
2023-05-10T00:09:23.621Z,0.00
2023-05-10T00:09:55.578Z,0.00
2023-05-10T00:10:27.716Z,0.00
2023-05-10T00:10:59.743Z,0.00
2023-05-10T00:11:31.678Z,0.00
2023-05-10T00:12:03.561Z,0.00
2023-05-10T00:12:35.487Z,0.00
2023-05-10T00:13:07.686Z,0.00
2023-05-10T00:13:39.572Z,0.00
2023-05-10T00:14:11.467Z,0.00
2023-05-10T00:14:43.403Z,0.00
2023-05-10T00:15:15.633Z,0.00
2023-05-10T00:15:47.359Z,0.00
2023-05-10T00:16:19.436Z,0.00
2023-05-10T00:16:51.438Z,0.00
2023-05-10T00:17:23.364Z,0.00
2023-05-10T00:17:55.551Z,0.00
2023-05-10T00:18:27.175Z,0.00
2023-05-10T00:18:59.380Z,0.00
2023-05-10T00:19:31.555Z,0.00
2023-05-10T00:20:03.105Z,0.00
2023-05-10T00:20:35.153Z,0.00
2023-05-10T00:21:07.260Z,0.00
2023-05-10T00:21:39.398Z,0.00
2023-05-10T00:22:11.141Z,0.00
2023-05-10T00:22:43.013Z,0.00
2023-05-10T00:23:15.083Z,0.00
2023-05-10T00:23:47.084Z,0.00
2023-05-10T00:24:18.858Z,0.00
2023-05-10T00:24:51.090Z,0.00
2023-05-10T00:25:23.211Z,0.00
2023-05-10T00:25:54.891Z,0.00
2023-05-10T00:26:26.853Z,0.00
2023-05-10T00:26:58.861Z,0.00
2023-05-10T00:27:31.147Z,0.00
2023-05-10T00:28:02.948Z,0.00
2023-05-10T00:28:34.772Z,0.00
2023-05-10T00:29:06.870Z,0.00
2023-05-10T00:29:38.989Z,0.00
2023-05-10T00:30:11.115Z,0.00
2023-05-10T00:30:42.696Z,0.00
2023-05-10T00:31:14.819Z,0.00
2023-05-10T00:31:46.817Z,0.00
2023-05-10T00:32:19.200Z,0.00
2023-05-10T00:32:50.937Z,0.00
2023-05-10T00:33:22.716Z,0.00
2023-05-10T00:33:54.739Z,0.00
2023-05-10T00:34:26.572Z,0.00
2023-05-10T00:34:58.631Z,0.00
2023-05-10T00:35:30.620Z,0.00
2023-05-10T00:36:02.663Z,0.00
2023-05-10T00:36:34.324Z,0.00
2023-05-10T00:37:06.428Z,0.00
2023-05-10T00:37:38.628Z,0.00
2023-05-10T00:38:10.904Z,0.00
2023-05-10T00:38:42.933Z,0.00
2023-05-10T00:39:14.490Z,0.00
2023-05-10T00:39:46.412Z,0.00
2023-05-10T00:40:18.693Z,0.00
2023-05-10T00:40:50.437Z,0.00
2023-05-10T00:41:22.537Z,0.00
2023-05-10T00:41:54.318Z,0.00
2023-05-10T00:42:26.516Z,0.00
2023-05-10T00:42:58.247Z,0.00
2023-05-10T00:43:30.304Z,0.00
2023-05-10T00:44:02.253Z,0.00
2023-05-10T00:44:34.141Z,0.00
2023-05-10T00:45:06.335Z,0.00
2023-05-10T00:45:38.200Z,0.00
2023-05-10T00:46:10.261Z,0.00
2023-05-10T00:46:42.242Z,0.00
2023-05-10T00:47:13.985Z,0.00
2023-05-10T00:47:46.078Z,0.00
2023-05-10T00:48:18.115Z,0.00
2023-05-10T00:48:50.091Z,0.00
2023-05-10T00:49:21.909Z,0.00
2023-05-10T00:49:54.105Z,0.00
2023-05-10T00:50:25.959Z,0.00
2023-05-10T00:50:58.243Z,0.00
2023-05-10T00:51:29.801Z,0.00
2023-05-10T00:52:01.762Z,0.00
2023-05-10T00:52:33.740Z,0.00
2023-05-10T00:53:05.873Z,0.00
2023-05-10T00:53:37.809Z,0.00
2023-05-10T00:54:09.676Z,0.00
2023-05-10T00:54:41.775Z,0.00
2023-05-10T00:55:13.954Z,0.00
2023-05-10T00:55:45.645Z,0.00
2023-05-10T00:56:17.672Z,0.00
2023-05-10T00:56:49.768Z,0.00
2023-05-10T00:57:21.696Z,0.00
2023-05-10T00:57:53.568Z,0.00
2023-05-10T00:58:25.694Z,0.00
2023-05-10T00:58:57.596Z,0.00
2023-05-10T00:59:29.678Z,0.00
2023-05-10T01:00:01.739Z,0.00
2023-05-10T01:00:33.526Z,0.00
2023-05-10T01:01:05.711Z,0.00
2023-05-10T01:01:37.820Z,0.00
2023-05-10T01:02:09.448Z,0.00
2023-05-10T01:02:41.513Z,0.00
2023-05-10T01:03:13.593Z,0.00
2023-05-10T01:03:45.746Z,0.00
2023-05-10T01:04:17.527Z,0.00
2023-05-10T01:04:49.391Z,0.00
2023-05-10T01:05:21.729Z,0.00
2023-05-10T01:05:53.597Z,0.00
2023-05-10T01:06:25.187Z,0.00
2023-05-10T01:06:57.216Z,0.00
2023-05-10T01:07:29.227Z,0.00
2023-05-10T01:08:01.491Z,0.00
2023-05-10T01:08:33.322Z,0.00
2023-05-10T01:09:05.261Z,0.00
2023-05-10T01:09:37.407Z,0.00
2023-05-10T01:10:09.032Z,0.00
2023-05-10T01:10:41.429Z,0.00
2023-05-10T01:11:13.235Z,0.00
2023-05-10T01:11:45.194Z,0.00
2023-05-10T01:12:17.062Z,0.00
2023-05-10T01:12:48.994Z,0.00
2023-05-10T01:13:21.510Z,0.00
2023-05-10T01:13:53.059Z,0.00
2023-05-10T01:14:24.936Z,0.00
2023-05-10T01:14:56.942Z,0.00
2023-05-10T01:15:29.140Z,0.00
2023-05-10T01:16:01.088Z,0.00
2023-05-10T01:16:32.769Z,0.00
2023-05-10T01:17:04.805Z,0.00
2023-05-10T01:17:36.796Z,0.00
2023-05-10T01:18:09.120Z,0.00
2023-05-10T01:18:40.873Z,0.00
2023-05-10T01:19:12.779Z,0.00
2023-05-10T01:19:44.736Z,0.00
2023-05-10T01:20:17.079Z,0.00
2023-05-10T01:20:48.582Z,0.00
2023-05-10T01:21:20.855Z,0.00
2023-05-10T01:21:52.533Z,0.00
2023-05-10T01:22:24.767Z,0.00
2023-05-10T01:22:56.461Z,0.00
2023-05-10T01:23:28.511Z,0.00
2023-05-10T01:24:00.508Z,0.00
2023-05-10T01:24:32.450Z,0.00
2023-05-10T01:25:04.391Z,0.00
2023-05-10T01:25:36.557Z,0.00
2023-05-10T01:26:08.524Z,0.00
2023-05-10T01:26:40.417Z,0.00
2023-05-10T01:27:12.294Z,0.00
2023-05-10T01:27:44.317Z,0.00
2023-05-10T01:28:16.381Z,0.00
2023-05-10T01:28:48.428Z,0.00
2023-05-10T01:29:20.228Z,0.00
2023-05-10T01:30:05.098Z,0.00
2023-05-10T01:30:24.570Z,0.00
2023-05-10T01:30:56.500Z,0.00
2023-05-10T01:31:28.318Z,0.00
2023-05-10T01:32:00.212Z,0.00
2023-05-10T01:32:32.381Z,0.00
2023-05-10T01:33:04.228Z,0.00
2023-05-10T01:33:36.221Z,0.00
2023-05-10T01:34:08.206Z,0.00
2023-05-10T01:34:40.246Z,0.00
2023-05-10T01:35:12.096Z,0.00
2023-05-10T01:35:44.011Z,0.00
2023-05-10T01:36:16.041Z,0.00
2023-05-10T01:36:47.978Z,0.00
2023-05-10T01:37:19.869Z,0.00
2023-05-10T01:37:51.908Z,0.00
2023-05-10T01:38:24.244Z,0.00
2023-05-10T01:38:56.049Z,0.00
2023-05-10T01:39:27.998Z,0.00
2023-05-10T01:39:59.839Z,0.00
2023-05-10T01:40:31.842Z,0.00
2023-05-10T01:41:03.871Z,0.00
2023-05-10T01:41:35.784Z,0.00
2023-05-10T01:42:07.763Z,0.00
2023-05-10T01:42:39.733Z,0.00
2023-05-10T01:43:11.808Z,0.00
2023-05-10T01:43:43.887Z,0.00
2023-05-10T01:44:15.666Z,0.00
2023-05-10T01:44:47.715Z,0.00
2023-05-10T01:45:19.809Z,0.00
2023-05-10T01:45:51.803Z,0.00
2023-05-10T01:46:23.569Z,0.00
2023-05-10T01:46:55.781Z,0.00
2023-05-10T01:47:27.748Z,0.00
2023-05-10T01:47:59.480Z,0.00
2023-05-10T01:48:31.537Z,0.00
2023-05-10T01:49:03.593Z,0.00
2023-05-10T01:49:35.625Z,0.00
2023-05-10T01:50:07.435Z,0.00
2023-05-10T01:50:39.380Z,0.00
2023-05-10T01:51:11.514Z,0.00
2023-05-10T01:51:43.521Z,0.00
2023-05-10T01:52:15.334Z,0.00
2023-05-10T01:52:47.341Z,0.00
2023-05-10T01:53:19.205Z,0.00
2023-05-10T01:53:51.452Z,0.00
2023-05-10T01:54:23.083Z,0.00
2023-05-10T01:54:55.109Z,0.00
2023-05-10T01:55:27.320Z,0.00
2023-05-10T01:55:59.243Z,0.00
2023-05-10T01:56:31.402Z,0.00
2023-05-10T01:57:03.123Z,0.00
2023-05-10T01:57:35.138Z,0.00
2023-05-10T01:58:07.169Z,0.00
2023-05-10T01:58:39.096Z,0.00
2023-05-10T01:59:11.154Z,0.00
2023-05-10T01:59:43.293Z,0.00
2023-05-10T02:00:15.798Z,0.00
2023-05-10T02:00:47.015Z,0.00
2023-05-10T02:01:19.170Z,0.00
2023-05-10T02:01:51.309Z,0.00
2023-05-10T02:02:23.012Z,0.00
2023-05-10T02:02:54.813Z,0.00
2023-05-10T02:03:26.879Z,0.00
2023-05-10T02:03:59.106Z,0.00
2023-05-10T02:04:31.009Z,0.00
2023-05-10T02:05:02.751Z,0.00
2023-05-10T02:05:34.760Z,0.00
2023-05-10T02:06:06.888Z,0.00
2023-05-10T02:06:38.826Z,0.00
2023-05-10T02:07:10.759Z,0.00
2023-05-10T02:07:42.833Z,0.00
2023-05-10T02:08:14.846Z,0.00
2023-05-10T02:08:46.711Z,0.00
2023-05-10T02:09:18.650Z,0.00
2023-05-10T02:09:50.815Z,0.00
2023-05-10T02:10:22.534Z,0.00
2023-05-10T02:10:54.449Z,0.00
2023-05-10T02:11:26.494Z,0.00
2023-05-10T02:11:58.612Z,0.00
2023-05-10T02:12:30.543Z,0.00
2023-05-10T02:13:02.416Z,0.00
2023-05-10T02:13:34.299Z,0.00
2023-05-10T02:14:06.660Z,0.00
2023-05-10T02:14:38.658Z,0.00
2023-05-10T02:15:10.603Z,0.00
2023-05-10T02:15:42.402Z,0.00
2023-05-10T02:16:14.383Z,0.00
2023-05-10T02:16:46.443Z,0.00
2023-05-10T02:17:18.167Z,0.00
2023-05-10T02:17:50.505Z,0.00
2023-05-10T02:18:22.363Z,0.00
2023-05-10T02:18:54.612Z,0.00
2023-05-10T02:19:26.197Z,0.00
2023-05-10T02:19:58.133Z,0.00
2023-05-10T02:20:30.200Z,0.00
2023-05-10T02:21:02.206Z,0.00
2023-05-10T02:21:33.921Z,0.00
2023-05-10T02:22:06.049Z,0.00
2023-05-10T02:22:38.002Z,0.00
2023-05-10T02:23:09.999Z,0.00
2023-05-10T02:23:41.945Z,0.00
2023-05-10T02:24:14.092Z,0.00
2023-05-10T02:24:46.026Z,0.00
2023-05-10T02:25:17.937Z,0.00
2023-05-10T02:25:49.883Z,0.00
2023-05-10T02:26:21.873Z,0.00
2023-05-10T02:26:53.899Z,0.00
2023-05-10T02:27:26.030Z,0.00
2023-05-10T02:27:57.774Z,0.00
2023-05-10T02:28:29.783Z,0.00
2023-05-10T02:29:01.936Z,0.00
2023-05-10T02:29:34.000Z,0.00
2023-05-10T02:30:05.957Z,0.00
2023-05-10T02:30:37.703Z,0.00
2023-05-10T02:31:09.648Z,0.00
2023-05-10T02:31:41.931Z,0.00
2023-05-10T02:32:13.822Z,0.00
2023-05-10T02:32:45.759Z,0.00
2023-05-10T02:33:17.646Z,0.00
2023-05-10T02:33:49.783Z,0.00
2023-05-10T02:34:21.586Z,0.00
2023-05-10T02:34:53.440Z,0.00
2023-05-10T02:35:25.568Z,0.00
2023-05-10T02:35:57.741Z,0.00
2023-05-10T02:36:29.500Z,0.00
2023-05-10T02:37:02.429Z,0.00
2023-05-10T02:37:33.370Z,0.00
2023-05-10T02:38:05.673Z,0.00
2023-05-10T02:38:37.228Z,0.00
2023-05-10T02:39:09.387Z,0.00
2023-05-10T02:39:41.508Z,0.00
2023-05-10T02:40:13.417Z,0.00
2023-05-10T02:40:45.308Z,0.00
2023-05-10T02:41:17.385Z,0.00
2023-05-10T02:41:49.398Z,0.00
2023-05-10T02:42:21.235Z,0.00
2023-05-10T02:42:53.156Z,0.00
2023-05-10T02:43:25.430Z,0.00
2023-05-10T02:43:57.714Z,0.00
2023-05-10T02:44:29.271Z,0.00
2023-05-10T02:45:01.394Z,0.00
2023-05-10T02:45:33.248Z,0.00
2023-05-10T02:46:05.428Z,0.00
2023-05-10T02:46:37.077Z,0.00
2023-05-10T02:47:09.050Z,0.00
2023-05-10T02:47:41.105Z,0.00
2023-05-10T02:48:13.298Z,0.00
2023-05-10T02:48:45.014Z,0.00
2023-05-10T02:49:17.031Z,0.00
2023-05-10T02:49:49.011Z,0.00
2023-05-10T02:50:21.224Z,0.00
2023-05-10T02:50:52.739Z,0.00
2023-05-10T02:51:24.703Z,0.00
2023-05-10T02:51:56.854Z,0.00
2023-05-10T02:52:28.969Z,0.00
2023-05-10T02:53:00.870Z,0.00
2023-05-10T02:53:32.778Z,0.00
2023-05-10T02:54:04.760Z,0.00
2023-05-10T02:54:36.809Z,0.00
2023-05-10T02:55:08.843Z,0.00
2023-05-10T02:55:40.728Z,0.00
2023-05-10T02:56:12.584Z,0.00
2023-05-10T02:56:44.829Z,0.00
2023-05-10T02:57:16.611Z,0.01
2023-05-10T02:57:48.549Z,0.01
2023-05-10T02:58:20.813Z,0.01
2023-05-10T02:58:52.622Z,0.01
2023-05-10T02:59:24.497Z,0.01
2023-05-10T02:59:56.583Z,0.01
2023-05-10T03:00:28.614Z,0.01
2023-05-10T03:01:00.550Z,0.01
2023-05-10T03:01:32.443Z,0.01
2023-05-10T03:02:04.505Z,0.01
2023-05-10T03:02:36.442Z,0.01
2023-05-10T03:03:08.228Z,0.01
2023-05-10T03:03:40.432Z,0.01
2023-05-10T03:04:12.419Z,0.01
2023-05-10T03:04:44.337Z,0.01
2023-05-10T03:05:16.420Z,0.01
2023-05-10T03:05:48.301Z,0.01
2023-05-10T03:06:20.281Z,0.01
2023-05-10T03:06:52.249Z,0.01
2023-05-10T03:07:24.181Z,0.01
2023-05-10T03:07:56.111Z,0.01
2023-05-10T03:08:28.160Z,0.01
2023-05-10T03:09:00.283Z,0.01
2023-05-10T03:09:32.037Z,0.01
2023-05-10T03:10:04.143Z,0.01
2023-05-10T03:10:36.175Z,0.02
2023-05-10T03:11:08.148Z,0.02
2023-05-10T03:11:39.990Z,0.02
2023-05-10T03:12:11.974Z,0.02
2023-05-10T03:12:44.052Z,0.02
2023-05-10T03:13:16.019Z,0.02
2023-05-10T03:13:47.974Z,0.02
2023-05-10T03:14:19.877Z,0.03
2023-05-10T03:14:52.014Z,0.04
2023-05-10T03:15:23.896Z,0.05
2023-05-10T03:15:55.794Z,0.05
2023-05-10T03:16:28.122Z,0.06
2023-05-10T03:16:59.797Z,0.07
2023-05-10T03:17:31.829Z,0.08
2023-05-10T03:18:03.676Z,0.09
2023-05-10T03:18:35.714Z,0.10
2023-05-10T03:19:07.910Z,0.12
2023-05-10T03:19:39.581Z,0.13
2023-05-10T03:20:11.815Z,0.15
2023-05-10T03:20:43.749Z,0.16
2023-05-10T03:21:15.855Z,0.17
2023-05-10T03:21:47.370Z,0.18
2023-05-10T03:22:19.417Z,0.20
2023-05-10T03:22:51.526Z,0.22
2023-05-10T03:23:23.539Z,0.24
2023-05-10T03:23:55.270Z,0.27
2023-05-10T03:24:27.524Z,0.29
2023-05-10T03:24:59.465Z,0.32
2023-05-10T03:25:31.591Z,0.35
2023-05-10T03:26:03.378Z,0.38
2023-05-10T03:26:35.350Z,0.42
2023-05-10T03:27:07.420Z,0.46
2023-05-10T03:27:39.524Z,0.50
2023-05-10T03:28:11.585Z,0.54
2023-05-10T03:28:43.425Z,0.60
2023-05-10T03:29:15.325Z,0.65
2023-05-10T03:29:47.342Z,0.70
2023-05-10T03:30:19.423Z,0.75
2023-05-10T03:30:51.366Z,0.81
2023-05-10T03:31:23.286Z,0.85
2023-05-10T03:31:55.387Z,0.90
2023-05-10T03:32:27.238Z,0.95
2023-05-10T03:32:59.307Z,0.99
2023-05-10T03:33:31.340Z,1.03
2023-05-10T03:34:03.154Z,1.05
2023-05-10T03:34:34.995Z,1.07
2023-05-10T03:35:07.125Z,1.09
2023-05-10T03:35:39.167Z,1.09
2023-05-10T03:36:11.250Z,1.10
2023-05-10T03:36:43.045Z,1.14
2023-05-10T03:37:14.851Z,1.17
2023-05-10T03:37:47.066Z,1.21
2023-05-10T03:38:19.005Z,1.25
2023-05-10T03:38:51.036Z,1.33
2023-05-10T03:39:22.952Z,1.37
2023-05-10T03:39:54.754Z,1.44
2023-05-10T03:40:27.028Z,1.51
2023-05-10T03:40:58.798Z,1.59
2023-05-10T03:41:30.988Z,1.67
2023-05-10T03:42:02.666Z,1.74
2023-05-10T03:42:34.723Z,1.83
2023-05-10T03:43:06.725Z,1.92
2023-05-10T03:43:38.843Z,2.00
2023-05-10T03:44:10.869Z,2.07
2023-05-10T03:44:42.636Z,2.14
2023-05-10T03:45:14.840Z,2.17
2023-05-10T03:45:46.912Z,2.24
2023-05-10T03:46:18.635Z,2.27
2023-05-10T03:46:50.616Z,2.30
2023-05-10T03:47:22.557Z,2.29
2023-05-10T03:47:54.708Z,2.32
2023-05-10T03:48:26.509Z,2.34
2023-05-10T03:48:58.684Z,2.37
2023-05-10T03:49:30.609Z,2.56
2023-05-10T03:50:02.463Z,2.60
2023-05-10T03:50:34.469Z,2.68
2023-05-10T03:51:06.363Z,2.76
2023-05-10T03:51:38.537Z,2.83
2023-05-10T03:52:10.290Z,2.90
2023-05-10T03:52:42.195Z,2.97
2023-05-10T03:53:14.278Z,3.00
2023-05-10T03:53:46.342Z,3.11
2023-05-10T03:54:18.046Z,3.15
2023-05-10T03:54:50.135Z,3.24
2023-05-10T03:55:22.201Z,3.33
2023-05-10T03:55:54.212Z,3.43
2023-05-10T03:56:26.106Z,3.50
2023-05-10T03:56:58.186Z,3.63
2023-05-10T03:57:30.121Z,3.86
2023-05-10T03:58:02.153Z,3.99
2023-05-10T03:58:33.991Z,4.10
2023-05-10T03:59:06.281Z,4.18
2023-05-10T03:59:38.054Z,4.24
2023-05-10T04:00:10.528Z,4.45
2023-05-10T04:00:41.936Z,4.63
2023-05-10T04:01:14.048Z,4.87
2023-05-10T04:01:46.022Z,5.11
2023-05-10T04:02:18.176Z,5.35
2023-05-10T04:02:50.065Z,5.54
2023-05-10T04:03:22.231Z,5.78
2023-05-10T04:03:53.921Z,6.02
2023-05-10T04:04:25.878Z,6.26
2023-05-10T04:04:57.740Z,6.52
2023-05-10T04:05:29.861Z,6.76
2023-05-10T04:06:01.966Z,6.96
2023-05-10T04:06:34.473Z,7.20
2023-05-10T04:07:05.685Z,7.44
2023-05-10T04:07:37.831Z,7.70
2023-05-10T04:08:09.788Z,8.00
2023-05-10T04:08:41.668Z,8.26
2023-05-10T04:09:13.649Z,8.46
2023-05-10T04:09:45.577Z,8.71
2023-05-10T04:10:17.938Z,8.97
2023-05-10T04:10:49.497Z,9.23
2023-05-10T04:11:21.524Z,9.46
2023-05-10T04:11:53.388Z,9.73
2023-05-10T04:12:25.536Z,9.97
2023-05-10T04:12:57.556Z,10.19
2023-05-10T04:13:29.523Z,10.43
2023-05-10T04:14:01.596Z,10.63
2023-05-10T04:14:33.433Z,10.75
2023-05-10T04:15:05.605Z,10.73
2023-05-10T04:15:37.329Z,10.54
2023-05-10T04:16:09.672Z,10.32
2023-05-10T04:16:41.686Z,10.14
2023-05-10T04:17:13.243Z,9.89
2023-05-10T04:17:45.728Z,9.72
2023-05-10T04:18:17.330Z,9.57
2023-05-10T04:18:49.180Z,9.19
2023-05-10T04:19:21.257Z,8.83
2023-05-10T04:19:53.226Z,8.57
2023-05-10T04:20:25.288Z,8.44
2023-05-10T04:20:57.306Z,8.49
2023-05-10T04:21:29.061Z,8.46
2023-05-10T04:22:01.229Z,8.51
2023-05-10T04:22:33.581Z,8.50
2023-05-10T04:23:05.119Z,8.78
2023-05-10T04:23:36.973Z,9.21
2023-05-10T04:24:09.167Z,9.60
2023-05-10T04:24:41.302Z,10.05
2023-05-10T04:25:12.914Z,10.35
2023-05-10T04:25:44.823Z,10.74
2023-05-10T04:26:16.968Z,11.10
2023-05-10T04:26:48.788Z,11.52
2023-05-10T04:27:21.105Z,11.76
2023-05-10T04:27:52.737Z,11.75
2023-05-10T04:28:24.792Z,11.70
2023-05-10T04:28:56.858Z,11.81
2023-05-10T04:29:28.862Z,12.24
2023-05-10T04:30:01.229Z,12.67
2023-05-10T04:30:32.779Z,13.19
2023-05-10T04:31:04.904Z,12.75
2023-05-10T04:31:36.751Z,11.87
2023-05-10T04:32:08.848Z,10.98
2023-05-10T04:32:40.755Z,10.21
2023-05-10T04:33:12.827Z,9.98
2023-05-10T04:33:44.664Z,9.39
2023-05-10T04:34:16.510Z,8.63
2023-05-10T04:34:48.810Z,7.69
2023-05-10T04:35:21.225Z,6.91
2023-05-10T04:35:52.455Z,6.05
2023-05-10T04:36:24.434Z,4.96
2023-05-10T04:36:56.409Z,3.81
2023-05-10T04:37:28.465Z,3.13
2023-05-10T04:38:00.865Z,3.16
2023-05-10T04:38:32.419Z,3.79
2023-05-10T04:39:04.575Z,4.65
2023-05-10T04:39:36.380Z,5.72
2023-05-10T04:40:08.257Z,6.39
2023-05-10T04:40:40.362Z,6.49
2023-05-10T04:41:12.370Z,6.55
2023-05-10T04:41:44.386Z,6.80
2023-05-10T04:42:16.114Z,7.25
2023-05-10T04:42:48.196Z,7.54
2023-05-10T04:43:20.255Z,7.57
2023-05-10T04:43:52.216Z,7.58
2023-05-10T04:44:24.046Z,7.56
2023-05-10T04:44:56.056Z,7.76
2023-05-10T04:45:28.214Z,8.08
2023-05-10T04:46:00.397Z,8.15
2023-05-10T04:46:32.067Z,7.95
2023-05-10T04:47:04.082Z,7.67
2023-05-10T04:47:36.028Z,7.79
2023-05-10T04:48:08.096Z,8.27
2023-05-10T04:48:39.899Z,8.61
2023-05-10T04:49:11.899Z,8.78
2023-05-10T04:49:44.147Z,9.63
2023-05-10T04:50:16.277Z,10.58
2023-05-10T04:50:47.980Z,11.44
2023-05-10T04:51:19.905Z,12.31
2023-05-10T04:51:51.924Z,12.88
2023-05-10T04:52:23.907Z,13.39
2023-05-10T04:52:55.590Z,13.93
2023-05-10T04:53:27.962Z,14.33
2023-05-10T04:54:05.955Z,14.62
2023-05-10T04:54:31.685Z,14.94
2023-05-10T04:55:04.098Z,15.19
2023-05-10T04:55:35.744Z,15.40
2023-05-10T04:56:07.587Z,15.55
2023-05-10T04:56:39.716Z,15.60
2023-05-10T04:57:11.620Z,15.64
2023-05-10T04:57:43.531Z,15.57
2023-05-10T04:58:15.552Z,15.68
2023-05-10T04:58:47.629Z,15.59
2023-05-10T04:59:19.449Z,15.57
2023-05-10T04:59:51.612Z,15.58
2023-05-10T05:00:23.583Z,15.66
2023-05-10T05:00:55.751Z,15.83
2023-05-10T05:01:27.358Z,16.35
2023-05-10T05:01:59.763Z,16.99
2023-05-10T05:02:31.570Z,17.47
2023-05-10T05:03:03.583Z,17.74
2023-05-10T05:03:35.420Z,17.94
2023-05-10T05:04:07.400Z,18.20
2023-05-10T05:04:39.382Z,18.69
2023-05-10T05:05:11.411Z,19.19
2023-05-10T05:05:43.258Z,19.34
2023-05-10T05:06:15.191Z,19.57
2023-05-10T05:06:47.277Z,19.84
2023-05-10T05:07:19.236Z,20.36
2023-05-10T05:07:51.295Z,20.96
2023-05-10T05:08:23.234Z,21.55
2023-05-10T05:08:55.136Z,22.07
2023-05-10T05:09:26.978Z,22.35
2023-05-10T05:09:59.028Z,22.64
2023-05-10T05:10:31.411Z,23.02
2023-05-10T05:11:03.206Z,23.52
2023-05-10T05:11:34.884Z,23.85
2023-05-10T05:12:07.456Z,24.08
2023-05-10T05:12:39.118Z,24.24
2023-05-10T05:13:11.207Z,24.42
2023-05-10T05:13:42.914Z,24.66
2023-05-10T05:14:14.869Z,24.99
2023-05-10T05:14:46.845Z,25.23
2023-05-10T05:15:19.049Z,25.51
2023-05-10T05:15:51.058Z,25.82
2023-05-10T05:16:22.795Z,26.06
2023-05-10T05:16:54.745Z,26.50
2023-05-10T05:17:26.885Z,26.99
2023-05-10T05:17:58.664Z,27.38
2023-05-10T05:18:30.959Z,27.81
2023-05-10T05:19:02.677Z,27.77
2023-05-10T05:19:34.738Z,26.78
2023-05-10T05:20:06.573Z,25.55
2023-05-10T05:20:38.635Z,25.52
2023-05-10T05:21:10.826Z,26.38
2023-05-10T05:21:42.998Z,27.44
2023-05-10T05:22:14.519Z,28.37
2023-05-10T05:22:46.477Z,29.13
2023-05-10T05:23:18.608Z,29.59
2023-05-10T05:23:50.909Z,29.79
2023-05-10T05:24:22.481Z,29.68
2023-05-10T05:24:54.261Z,29.32
2023-05-10T05:25:26.525Z,28.77
2023-05-10T05:25:58.442Z,27.99
2023-05-10T05:26:30.184Z,27.10
2023-05-10T05:27:02.356Z,26.29
2023-05-10T05:27:34.226Z,25.55
2023-05-10T05:28:06.365Z,24.33
2023-05-10T05:28:38.305Z,24.48
2023-05-10T05:29:10.230Z,26.43
2023-05-10T05:29:42.443Z,28.60
2023-05-10T05:30:14.461Z,29.97
2023-05-10T05:30:46.425Z,30.71
2023-05-10T05:31:18.676Z,30.78
2023-05-10T05:31:50.212Z,29.79
2023-05-10T05:32:22.191Z,28.60
2023-05-10T05:32:54.058Z,28.93
2023-05-10T05:33:26.218Z,30.05
2023-05-10T05:33:58.069Z,30.73
2023-05-10T05:34:30.165Z,30.65
2023-05-10T05:35:02.139Z,30.90
2023-05-10T05:35:34.056Z,31.63
2023-05-10T05:36:05.915Z,32.42
2023-05-10T05:36:38.148Z,33.26
2023-05-10T05:37:10.014Z,33.64
2023-05-10T05:37:41.767Z,33.63
2023-05-10T05:38:13.981Z,34.10
2023-05-10T05:38:46.021Z,34.31
2023-05-10T05:39:17.806Z,33.62
2023-05-10T05:39:49.789Z,32.84
2023-05-10T05:40:21.859Z,33.05
2023-05-10T05:40:53.541Z,34.17
2023-05-10T05:41:25.764Z,35.37
2023-05-10T05:41:57.692Z,36.03
2023-05-10T05:42:29.840Z,35.84
2023-05-10T05:43:01.817Z,35.80
2023-05-10T05:43:35.025Z,34.96
2023-05-10T05:44:05.729Z,34.06
2023-05-10T05:44:37.776Z,33.65
2023-05-10T05:45:09.671Z,34.35
2023-05-10T05:45:41.646Z,35.17
2023-05-10T05:46:13.643Z,35.20
2023-05-10T05:46:45.625Z,35.03
2023-05-10T05:47:17.360Z,35.16
2023-05-10T05:47:49.322Z,35.37
2023-05-10T05:48:21.728Z,35.30
2023-05-10T05:48:53.380Z,35.20
2023-05-10T05:49:25.338Z,35.17
2023-05-10T05:49:57.570Z,35.05
2023-05-10T05:50:29.384Z,34.87
2023-05-10T05:51:01.487Z,34.71
2023-05-10T05:51:33.265Z,34.66
2023-05-10T05:52:05.370Z,34.99
2023-05-10T05:52:37.338Z,35.62
2023-05-10T05:53:09.123Z,36.40
2023-05-10T05:53:41.363Z,37.26
2023-05-10T05:54:13.209Z,38.08
2023-05-10T05:54:45.329Z,38.70
2023-05-10T05:55:17.313Z,39.51
2023-05-10T05:55:49.118Z,40.07
2023-05-10T05:56:21.232Z,40.73
2023-05-10T05:56:53.186Z,41.64
2023-05-10T05:57:24.951Z,42.12
2023-05-10T05:57:56.979Z,42.75
2023-05-10T05:58:29.081Z,43.16
2023-05-10T05:59:01.297Z,42.97
2023-05-10T05:59:33.573Z,42.01
2023-05-10T06:00:05.259Z,40.92
2023-05-10T06:00:37.090Z,40.12
2023-05-10T06:01:09.283Z,40.57
2023-05-10T06:01:41.099Z,41.80
2023-05-10T06:02:12.919Z,43.25
2023-05-10T06:02:45.120Z,43.85
2023-05-10T06:03:16.962Z,44.50
2023-05-10T06:03:50.390Z,44.63
2023-05-10T06:04:21.103Z,44.71
2023-05-10T06:04:52.978Z,44.69
2023-05-10T06:05:24.820Z,44.33
2023-05-10T06:05:56.616Z,44.03
2023-05-10T06:06:28.641Z,44.01
2023-05-10T06:07:01.124Z,44.15
2023-05-10T06:07:32.708Z,43.95
2023-05-10T06:08:04.671Z,43.35
2023-05-10T06:08:36.727Z,42.93
2023-05-10T06:09:08.615Z,42.86
2023-05-10T06:09:40.746Z,42.94
2023-05-10T06:10:12.482Z,43.09
2023-05-10T06:10:44.475Z,45.43
2023-05-10T06:11:16.628Z,47.60
2023-05-10T06:11:48.623Z,49.81
2023-05-10T06:12:20.522Z,51.37
2023-05-10T06:12:52.520Z,53.01
2023-05-10T06:13:24.466Z,54.21
2023-05-10T06:13:56.444Z,55.83
2023-05-10T06:14:28.373Z,56.76
2023-05-10T06:15:00.820Z,57.49
2023-05-10T06:15:32.355Z,58.01
2023-05-10T06:16:04.400Z,57.34
2023-05-10T06:16:36.270Z,57.17
2023-05-10T06:17:09.116Z,56.73
2023-05-10T06:17:40.271Z,56.30
2023-05-10T06:18:12.318Z,55.89
2023-05-10T06:18:44.285Z,54.89
2023-05-10T06:19:16.218Z,53.85
2023-05-10T06:19:48.338Z,53.09
2023-05-10T06:20:20.041Z,52.10
2023-05-10T06:20:52.055Z,51.89
2023-05-10T06:21:24.147Z,51.69
2023-05-10T06:21:56.471Z,51.04
2023-05-10T06:22:27.940Z,48.86
2023-05-10T06:23:00.001Z,45.48
2023-05-10T06:23:31.990Z,44.37
2023-05-10T06:24:04.216Z,45.49
2023-05-10T06:24:35.879Z,48.37
2023-05-10T06:25:07.931Z,50.54
2023-05-10T06:25:39.839Z,51.03
2023-05-10T06:26:11.887Z,49.50
2023-05-10T06:26:43.812Z,47.49
2023-05-10T06:27:15.761Z,47.73
2023-05-10T06:27:51.110Z,47.50
2023-05-10T06:28:19.832Z,47.40
2023-05-10T06:28:51.717Z,48.78
2023-05-10T06:29:23.997Z,51.39
2023-05-10T06:30:02.143Z,54.74
2023-05-10T06:30:27.757Z,58.56
2023-05-10T06:30:59.719Z,60.57
2023-05-10T06:31:31.758Z,60.60
2023-05-10T06:32:03.773Z,60.26
2023-05-10T06:32:35.825Z,57.27
2023-05-10T06:33:07.708Z,53.71
2023-05-10T06:33:39.543Z,49.43
2023-05-10T06:34:11.539Z,46.27
2023-05-10T06:34:43.719Z,45.52
2023-05-10T06:35:15.609Z,44.70
2023-05-10T06:35:47.640Z,43.07
2023-05-10T06:36:19.331Z,43.34
2023-05-10T06:36:51.668Z,47.09
2023-05-10T06:37:23.335Z,52.34
2023-05-10T06:37:55.309Z,57.62
2023-05-10T06:38:27.437Z,63.05
2023-05-10T06:38:59.581Z,68.50
2023-05-10T06:39:31.417Z,72.71
2023-05-10T06:40:03.435Z,76.47
2023-05-10T06:40:35.335Z,80.11
2023-05-10T06:41:07.323Z,83.69
2023-05-10T06:41:39.279Z,89.03
2023-05-10T06:42:11.509Z,95.25
2023-05-10T06:42:43.217Z,102.08
2023-05-10T06:43:15.209Z,107.21
2023-05-10T06:43:47.061Z,109.79
2023-05-10T06:44:19.197Z,115.37
2023-05-10T06:44:51.364Z,116.26
2023-05-10T06:45:23.207Z,115.52
2023-05-10T06:45:55.055Z,114.68
2023-05-10T06:46:27.110Z,113.65
2023-05-10T06:46:59.128Z,112.47
2023-05-10T06:47:31.446Z,109.83
2023-05-10T06:48:03.009Z,106.95
2023-05-10T06:48:34.931Z,103.63
2023-05-10T06:49:07.062Z,98.95
2023-05-10T06:49:39.104Z,92.94
2023-05-10T06:50:11.166Z,83.97
2023-05-10T06:50:42.794Z,74.44
2023-05-10T06:51:14.851Z,65.86
2023-05-10T06:51:46.694Z,59.83
2023-05-10T06:52:18.733Z,54.40
2023-05-10T06:52:52.970Z,48.15
2023-05-10T06:53:22.736Z,41.03
2023-05-10T06:53:54.915Z,35.03
2023-05-10T06:54:26.621Z,32.23
2023-05-10T06:54:58.786Z,31.48
2023-05-10T06:55:30.962Z,29.82
2023-05-10T06:56:02.531Z,27.24
2023-05-10T06:56:34.525Z,24.90
2023-05-10T06:57:13.070Z,24.40
2023-05-10T06:57:38.602Z,25.72
2023-05-10T06:58:10.403Z,29.80
2023-05-10T06:58:42.607Z,34.87
2023-05-10T06:59:14.659Z,42.08
2023-05-10T06:59:46.515Z,48.26
2023-05-10T07:00:19.059Z,55.11
2023-05-10T07:00:50.468Z,65.21